Rochester, MA

5:34 PM EDT on September 18, 2014 (GMT -0400)
Eastover Farms | Change Station
CLOSE
Current Station
Personal Weather Station
Location: Rochester, MA
Elevation: 50 ft
Nearby Weather Stations

Elev 50 ft 41.75 °N, 70.82 °W | Updated 57 seconds ago

Partly Cloudy
Partly Cloudy
68.5 °F
Feels Like 68.5 °F
N
0.0
Wind Variable Wind from West
Gusts 3.0 mph

Today
High -- | Low -- °F
--% Chance of Precip.
Yesterday
High -- | Low -- °F
Precip. -- in
6:26 AM 6:47 PM
Waning Crescent, 24% visible
Pressure 29.95 in
Visibility 10.0 miles
Clouds Scattered Clouds 7000 ft
Overcast 9500 ft
Dew Point 51 °F
Humidity 54%
Rainfall 0.00 in
Snow Depth Not available.
UV 0.0 out of 12
Pollen 3.60 out of 12
Ozone Good
PM2.5 Good
Flu Activity Not available.
METAR KEWB 182053Z 10006KT 10SM SCT070 OVC095 22/10 A2995 RMK AO2 SLP142 T02170100 53003

More Conditions Fewer Conditions

Pressure 29.95 in
Visibility 10.0 miles
Clouds Scattered Clouds 7000 ft
Overcast 9500 ft
Dew Point 51 °F
Humidity 54%
Rainfall 0.00 in
Snow Depth Not available.
UV 0.0 out of 12
Pollen 3.60 out of 12
Ozone Good
PM2.5 Good
Flu Activity Not available.
METAR KEWB 182053Z 10006KT 10SM SCT070 OVC095 22/10 A2995 RMK AO2 SLP142 T02170100 53003

More Conditions Fewer Conditions

10-Day Weather Forecast

Almanac

Astronomy

Sep. 18, 2014 Rise Set
Actual Time 6:26 AM EDT 6:47 PM EDT
Civil Twilight 5:58 AM EDT 7:15 PM EDT
Nautical Twilight 5:25 AM EDT 7:48 PM EDT
Astronomical Twilight 4:52 AM EDT 8:21 PM EDT
Moon 1:12 AM EDT 3:39 PM EDT
Length of Visible Light 13h 16m
Length of Day
12h 21m
Tomorrow will be 2m 46s shorter.
Waning Crescent, 24% of the Moon is Illuminated
Today
Waning Crescent
Sep 24
New
Oct 1
First Quarter
Oct 8
Full
Oct 15
Last Quarter

Today's Extremes

State Highs State Lows

Community

WunderPhotos

Upload Photos

1,754,452 photos uploaded!

WunderBlogs® & News

Nearby

Air Quality

  Air Quality AQ Index Pollutant
Yesterday Good
OZONE
Yesterday Good
PM2.5
Current Good
OZONE
Current Good
PM2.5
Thursday Good
PM2.5
Thursday Good
OZONE
Friday Good
PM2.5
Friday Good
OZONE

Snow Depth

Station Depth Elevation
No new snow has been reported.

Earthquake Activity

City Distance Mag. Time & Date
No recent earthquake activity has been reported nearby.
Minimum magnitude displayed is 2.5.

Coastal Water Temperatures

Place Temperature
Woods Hole, MA 70.0 °F
Fall River, MA 72.0 °F
Newport, RI 68.0 °F

Nearby Weather Stations